This is the latest recevied weather packets stored in our database for station/object SV9TNF-2. If no packets are shown the sender has not sent any weather packets the latest 10 day(s).
| Time | Temp. | Humidity | Pressure | Rain* | Wind** | Luminosity | Snow |
|---|---|---|---|---|---|---|---|
| 1777736153 | 14.44° C | 57% | 1021.7 hPa | 0 mm | 9.39 m/s, 56° | - | - |
| 1777735852 | 14.44° C | 61% | 1021.7 hPa | 0 mm | 7.15 m/s, 48° | - | - |
| 1777735553 | 14.44° C | 57% | 1021.7 hPa | 0 mm | 8.49 m/s, 95° | - | - |
| 1777735252 | 14.44° C | 56% | 1021.7 hPa | 0 mm | 8.49 m/s, 81° | - | - |
| 1777734952 | 15° C | 56% | 1021.7 hPa | 0 mm | 7.6 m/s, 30° | - | - |
| 1777734652 | 15° C | 54% | 1021.7 hPa | 0 mm | 7.15 m/s, 103° | - | - |
| 1777734352 | 15° C | 54% | 1021.7 hPa | 0 mm | 9.83 m/s, 79° | - | - |
| 1777734052 | 15° C | 55% | 1021.7 hPa | 0 mm | 6.71 m/s, 84° | - | - |
| 1777733752 | 15° C | 53% | 1021.7 hPa | 0 mm | 7.15 m/s, 62° | - | - |
| 1777733452 | 15° C | 53% | 1021.7 hPa | 0 mm | 8.94 m/s, 93° | - | - |
| 1777733152 | 15° C | 54% | 1021.7 hPa | 0 mm | 8.05 m/s, 88° | - | - |
| 1777732852 | 15° C | 53% | 1021.7 hPa | 0 mm | 8.94 m/s, 101° | - | - |
| 1777732551 | 15° C | 56% | 1022 hPa | 0 mm | 10.28 m/s, 93° | - | - |
| 1777732251 | 15° C | 57% | 1022 hPa | 0 mm | 8.05 m/s, 87° | - | - |
| 1777731951 | 14.44° C | 52% | 1022 hPa | 0 mm | 13.86 m/s, 72° | - | - |
| 1777731651 | 15° C | 58% | 1021.7 hPa | 0 mm | 9.83 m/s, 90° | - | - |
| 1777731351 | 14.44° C | 56% | 1021.7 hPa | 0 mm | 10.28 m/s, 92° | - | - |
| 1777731051 | 15° C | 57% | 1021.7 hPa | 0 mm | 7.15 m/s, 64° | - | - |
| 1777730751 | 15° C | 55% | 1021.7 hPa | 0 mm | 10.28 m/s, 70° | - | - |
| 1777730451 | 15° C | 51% | 1021.7 hPa | 0 mm | 8.94 m/s, 90° | - | - |
| 1777730151 | 15° C | 53% | 1021.7 hPa | 0 mm | 6.71 m/s, 180° | - | - |
| 1777729851 | 15° C | 57% | 1021.7 hPa | 0 mm | 5.81 m/s, 120° | - | - |
| 1777729551 | 15° C | 56% | 1021.7 hPa | 0 mm | 8.49 m/s, 23° | - | - |
| 1777729250 | 15° C | 54% | 1021.7 hPa | 0 mm | 11.18 m/s, 97° | - | - |
| 1777728951 | 15° C | 54% | 1021.7 hPa | 0 mm | 8.94 m/s, 14° | - | - |
* Rain latest hour (hover to see other rain measurements)
** Current wind speed in m/s (hover to see current wind gust speed)